Time;durP1;ratioP1;P1;durP2;ratioP2;P2;SDS_P1;SDS_P2;PMS_P1;PMS_P2;Temp;Humidity;BMP_temperature;BMP_pressure;BME280_temperature;BME280_humidity;BME280_pressure;Samples;Min_cycle;Max_cycle;Signal;HPM_P1;HPM_P2
2022/08/26 00:00:39;;;;;;;15.18;4.20;;;;;;;27.52;48.70;98374.81;4486877;32;20471;-78
2022/08/26 00:03:04;;;;;;;13.43;3.85;;;;;;;27.51;48.66;98371.28;4472970;32;20126;-79
2022/08/26 00:05:29;;;;;;;15.98;4.37;;;;;;;27.52;48.67;98372.91;4487727;32;20092;-79
2022/08/26 00:07:56;;;;;;;13.10;4.37;;;;;;;27.54;48.63;98359.19;4487722;32;20088;-79
2022/08/26 00:10:21;;;;;;;15.27;4.20;;;;;;;27.54;48.69;98365.44;4487317;32;20129;-79
2022/08/26 00:12:47;;;;;;;13.13;4.15;;;;;;;27.51;48.82;98363.16;4487644;32;20096;-79
2022/08/26 00:15:15;;;;;;;12.48;4.50;;;;;;;27.48;48.97;98365.44;4473680;32;20271;-79
2022/08/26 00:17:40;;;;;;;16.62;4.50;;;;;;;27.51;48.89;98363.16;4487714;32;20135;-79
2022/08/26 00:20:09;;;;;;;13.23;4.35;;;;;;;27.45;48.98;98361.25;4473390;32;20077;-79
2022/08/26 00:22:34;;;;;;;15.75;4.32;;;;;;;27.48;48.94;98365.44;4487540;32;20114;-79
2022/08/26 00:25:00;;;;;;;15.38;4.18;;;;;;;27.43;49.03;98363.34;4487643;32;20131;-79
2022/08/26 00:27:25;;;;;;;14.57;3.92;;;;;;;27.37;49.30;98370.37;4487624;32;20092;-78
2022/08/26 00:29:50;;;;;;;17.65;4.40;;;;;;;27.37;49.08;98369.53;4473269;32;20142;-78
2022/08/26 00:32:16;;;;;;;14.75;4.78;;;;;;;27.38;49.09;98366.62;4487496;32;20084;-79
2022/08/26 00:34:41;;;;;;;15.48;4.32;;;;;;;27.38;49.25;98361.22;4473216;32;20126;-78
2022/08/26 00:37:08;;;;;;;14.18;4.68;;;;;;;27.41;49.09;98362.69;4487613;32;20088;-78
2022/08/26 00:39:34;;;;;;;12.43;4.07;;;;;;;27.40;49.02;98364.56;4487430;32;20189;-78
2022/08/26 00:41:59;;;;;;;12.23;3.97;;;;;;;27.38;49.15;98363.94;4487455;32;20413;-79
2022/08/26 00:44:24;;;;;;;14.70;4.10;;;;;;;27.37;49.32;98364.13;4487561;32;20091;-78
2022/08/26 00:46:54;;;;;;;13.60;4.75;;;;;;;27.35;49.33;98355.37;4487327;32;20123;-78
2022/08/26 00:49:40;;;;;;;13.38;4.18;;;;;;;27.37;49.20;98353.31;4473187;32;20080;-79
2022/08/26 00:52:14;;;;;;;14.65;4.15;;;;;;;27.36;49.28;98349.78;4473158;32;20127;-78
2022/08/26 00:54:45;;;;;;;14.57;4.25;;;;;;;27.37;49.30;98347.91;4487522;32;20096;-79
2022/08/26 00:57:14;;;;;;;11.75;4.37;;;;;;;27.32;49.43;98350.41;4487115;32;20088;-78
2022/08/26 00:59:41;;;;;;;15.18;4.28;;;;;;;27.28;49.59;98358.06;4473266;32;20088;-78
2022/08/26 01:02:06;;;;;;;14.97;4.07;;;;;;;27.26;49.63;98355.56;4473123;32;20112;-79
2022/08/26 01:04:34;;;;;;;16.00;4.60;;;;;;;27.26;49.60;98358.28;4487295;32;20084;-79
2022/08/26 01:07:00;;;;;;;14.15;4.72;;;;;;;27.16;49.55;98362.34;4473112;32;20091;-78
2022/08/26 01:09:25;;;;;;;12.77;4.43;;;;;;;27.21;49.42;98360.69;4472971;32;20088;-78
2022/08/26 01:11:54;;;;;;;14.10;3.97;;;;;;;27.21;49.46;98354.47;4487161;32;20088;-78
2022/08/26 01:14:21;;;;;;;15.27;3.83;;;;;;;27.23;49.50;98355.91;4473088;32;20119;-78
2022/08/26 01:16:47;;;;;;;16.12;3.75;;;;;;;27.27;49.45;98350.97;4487249;32;20084;-79
2022/08/26 01:19:22;;;;;;;12.75;3.97;;;;;;;27.24;49.57;98354.06;4487373;32;20457;-79
2022/08/26 01:22:00;;;;;;;13.62;3.97;;;;;;;27.25;49.56;98350.34;4472805;32;20097;-79
2022/08/26 01:24:28;;;;;;;11.38;4.07;;;;;;;27.28;49.57;98352.66;4472758;32;20496;-79
2022/08/26 01:27:00;;;;;;;14.07;4.45;;;;;;;27.25;49.65;98345.78;4473152;32;20108;-79
2022/08/26 01:29:26;;;;;;;14.18;3.80;;;;;;;27.24;49.78;98345.97;4473024;32;20080;-79
2022/08/26 01:31:54;;;;;;;15.77;4.63;;;;;;;27.23;49.83;98347.81;4472819;32;20456;-79
2022/08/26 01:34:29;;;;;;;13.70;3.95;;;;;;;27.22;49.86;98339.91;4472971;32;20251;-79
2022/08/26 01:37:02;;;;;;;17.85;4.75;;;;;;;27.15;49.99;98348.00;4487205;32;20088;-79
2022/08/26 01:39:28;;;;;;;13.68;4.18;;;;;;;27.19;49.94;98346.53;4487354;32;20103;-79
2022/08/26 01:41:55;;;;;;;15.93;5.40;;;;;;;27.16;49.81;98352.38;4487234;32;20374;-79
2022/08/26 01:44:23;;;;;;;14.80;4.47;;;;;;;27.10;49.89;98347.78;4473216;32;20160;-79
2022/08/26 01:46:49;;;;;;;12.70;3.85;;;;;;;27.11;49.99;98345.91;4472945;32;20083;-79
2022/08/26 01:49:15;;;;;;;17.40;4.85;;;;;;;26.83;50.43;98342.22;4487201;32;20138;-79
2022/08/26 01:51:43;;;;;;;10.40;3.62;;;;;;;27.00;50.15;98348.13;4459897;32;20165;-79
2022/08/26 01:54:10;;;;;;;12.88;3.97;;;;;;;27.04;50.23;98343.16;4473312;32;20139;-79
2022/08/26 01:56:36;;;;;;;13.35;4.07;;;;;;;27.06;50.27;98341.06;4472845;32;20117;-79
2022/08/26 01:59:06;;;;;;;11.65;4.10;;;;;;;27.02;50.32;98342.50;4487235;32;20080;-79
2022/08/26 02:01:31;;;;;;;14.02;5.45;;;;;;;27.06;50.19;98341.06;4487146;32;20095;-79
2022/08/26 02:04:02;;;;;;;13.18;3.90;;;;;;;27.07;50.36;98342.75;4487255;32;20153;-79
2022/08/26 02:06:28;;;;;;;14.32;4.10;;;;;;;27.11;50.20;98341.31;4472982;32;20084;-79
2022/08/26 02:08:55;;;;;;;13.57;3.62;;;;;;;27.06;50.30;98341.06;4472781;32;20120;-79
2022/08/26 02:11:21;;;;;;;13.62;4.20;;;;;;;27.06;50.23;98341.06;4472522;32;20127;-79
2022/08/26 02:13:53;;;;;;;12.13;4.05;;;;;;;26.97;50.39;98343.12;4486796;32;20088;-79
2022/08/26 02:16:21;;;;;;;13.02;4.20;;;;;;;26.87;50.49;98338.09;4486939;32;20115;-79
2022/08/26 02:18:47;;;;;;;15.48;4.55;;;;;;;26.90;50.39;98338.72;4472489;32;20106;-79
2022/08/26 02:21:13;;;;;;;14.73;4.05;;;;;;;26.78;50.61;98338.44;4486801;32;20092;-79
2022/08/26 02:23:39;;;;;;;15.90;4.00;;;;;;;26.93;50.25;98333.75;4459368;32;20143;-79
2022/08/26 02:26:09;;;;;;;14.18;4.00;;;;;;;26.96;50.21;98341.44;4486862;32;20473;-79
2022/08/26 02:28:48;;;;;;;16.90;4.20;;;;;;;27.01;50.13;98343.56;4472341;32;20439;-79
2022/08/26 02:31:14;;;;;;;16.50;3.85;;;;;;;26.99;50.20;98337.53;4472407;32;20108;-79
2022/08/26 02:33:39;;;;;;;16.65;4.25;;;;;;;26.85;50.42;98347.44;4486274;32;20068;-79
2022/08/26 02:36:05;;;;;;;14.20;4.32;;;;;;;26.91;50.32;98343.06;4486500;32;20153;-78
2022/08/26 02:38:31;;;;;;;13.32;4.18;;;;;;;26.91;50.37;98343.06;4472605;32;20081;-78
2022/08/26 02:40:56;;;;;;;14.30;4.07;;;;;;;26.97;50.25;98339.59;4486359;32;20100;-79
2022/08/26 02:43:22;;;;;;;20.48;4.80;;;;;;;27.01;50.25;98341.69;4486553;32;20099;-78
2022/08/26 02:45:47;;;;;;;19.27;4.70;;;;;;;26.86;50.47;98340.97;4486418;32;20386;-78
2022/08/26 02:48:15;;;;;;;15.32;4.50;;;;;;;26.81;50.53;98341.59;4486360;32;20093;-78
2022/08/26 02:50:40;;;;;;;19.00;4.37;;;;;;;26.82;49.87;98345.94;4486578;32;20096;-78
2022/08/26 02:53:06;;;;;;;14.23;4.10;;;;;;;26.86;49.91;98343.69;4486532;32;20113;-78
2022/08/26 02:55:32;;;;;;;12.90;3.72;;;;;;;26.89;49.82;98343.28;4486558;32;20131;-78
2022/08/26 02:57:57;;;;;;;13.55;4.07;;;;;;;26.91;49.87;98337.66;4486371;32;20077;-78
2022/08/26 03:00:24;;;;;;;14.77;4.05;;;;;;;26.76;49.92;98335.09;4486400;32;20128;-79
2022/08/26 03:02:49;;;;;;;18.02;4.37;;;;;;;26.54;50.17;98342.41;4486570;32;20452;-79
2022/08/26 03:05:16;;;;;;;16.40;4.50;;;;;;;26.81;49.24;98340.72;4486142;32;20084;-79
2022/08/26 03:07:42;;;;;;;16.55;3.75;;;;;;;26.80;49.28;98333.69;4471991;32;20455;-78
2022/08/26 03:10:11;;;;;;;14.90;4.30;;;;;;;26.84;49.11;98330.38;4472098;32;20108;-79
2022/08/26 03:12:37;;;;;;;18.60;4.28;;;;;;;26.86;49.17;98336.41;4472394;32;20123;-78
2022/08/26 03:15:04;;;;;;;15.65;3.87;;;;;;;26.85;49.12;98340.16;4486277;32;20084;-79
2022/08/26 03:17:29;;;;;;;13.93;4.12;;;;;;;26.88;48.95;98328.94;4486006;32;20420;-79
2022/08/26 03:19:55;;;;;;;16.83;4.43;;;;;;;26.76;48.76;98327.84;4485941;32;20135;-79
2022/08/26 03:22:20;;;;;;;14.50;4.12;;;;;;;26.79;48.77;98324.75;4486171;32;20481;-79
2022/08/26 03:24:45;;;;;;;13.82;3.95;;;;;;;26.52;49.00;98328.25;4486126;32;20377;-79
2022/08/26 03:27:11;;;;;;;16.45;4.18;;;;;;;26.67;48.75;98321.75;4486111;32;20076;-79
2022/08/26 03:32:22;;;;;;;13.30;4.43;;;;;;;26.70;48.50;98325.09;4485988;32;20115;-79
2022/08/26 03:34:47;;;;;;;18.45;4.30;;;;;;;26.73;48.52;98322.81;4485740;32;20084;-79
2022/08/26 03:37:13;;;;;;;17.15;4.18;;;;;;;26.75;48.49;98317.22;4485619;32;20428;-79
2022/08/26 03:39:39;;;;;;;13.75;4.10;;;;;;;26.72;48.51;98323.87;4485682;32;20145;-79
2022/08/26 03:42:05;;;;;;;19.83;5.00;;;;;;;26.77;48.83;98326.81;4471506;32;20139;-78
2022/08/26 03:44:30;;;;;;;14.63;4.25;;;;;;;26.69;48.79;98321.53;4485910;32;20096;-79
2022/08/26 03:46:56;;;;;;;17.10;4.32;;;;;;;26.66;48.58;98321.97;4487197;32;20084;-79
2022/08/26 03:49:22;;;;;;;15.27;3.87;;;;;;;26.62;48.33;98326.09;4473805;32;20146;-79
2022/08/26 03:51:47;;;;;;;15.93;4.50;;;;;;;26.37;48.67;98321.09;4488049;32;20108;-79
2022/08/26 03:54:13;;;;;;;12.63;4.35;;;;;;;26.39;48.91;98319.03;4473472;32;20110;-79
2022/08/26 03:56:38;;;;;;;15.65;4.47;;;;;;;26.53;48.67;98322.66;4487597;32;20088;-79
2022/08/26 03:59:04;;;;;;;15.48;4.53;;;;;;;26.59;48.69;98319.19;4487871;32;20096;-78
2022/08/26 04:01:30;;;;;;;14.25;4.03;;;;;;;26.53;48.67;98325.38;4487737;32;20372;-79
2022/08/26 04:03:59;;;;;;;17.20;3.75;;;;;;;26.55;48.48;98323.31;4487823;32;20092;-78
2022/08/26 04:06:30;;;;;;;14.85;4.18;;;;;;;26.60;48.23;98320.06;4487766;32;20561;-78
2022/08/26 04:08:59;;;;;;;14.02;4.10;;;;;;;26.65;48.25;98317.56;4473496;32;20130;-79
2022/08/26 04:11:30;;;;;;;14.85;3.70;;;;;;;26.63;48.27;98322.34;4473512;32;20814;-79
2022/08/26 04:13:58;;;;;;;14.35;4.10;;;;;;;26.67;48.21;98320.91;4473705;32;20114;-79
2022/08/26 04:16:24;;;;;;;16.92;4.10;;;;;;;26.72;47.39;98318.47;4473636;32;20106;-79
2022/08/26 04:18:49;;;;;;;16.40;4.32;;;;;;;26.64;47.47;98324.03;4487603;32;20508;-79
2022/08/26 04:21:15;;;;;;;14.82;4.40;;;;;;;26.66;47.92;98320.09;4473464;32;20096;-79
2022/08/26 04:23:40;;;;;;;19.95;4.50;;;;;;;26.75;47.78;98323.44;4473246;32;20136;-79
2022/08/26 04:26:06;;;;;;;17.20;4.12;;;;;;;26.79;47.42;98323.87;4487521;32;20354;-79
2022/08/26 04:28:31;;;;;;;12.63;4.05;;;;;;;26.66;47.42;98330.06;4487493;32;20462;-78
2022/08/26 04:30:57;;;;;;;17.05;4.22;;;;;;;26.81;47.17;98327.22;4487516;32;20088;-78
2022/08/26 04:33:23;;;;;;;15.00;4.12;;;;;;;26.85;47.28;98323.94;4473203;32;20487;-79
2022/08/26 04:35:48;;;;;;;14.77;4.15;;;;;;;26.97;47.20;98318.78;4487543;32;20080;-79
2022/08/26 04:38:15;;;;;;;16.52;4.43;;;;;;;27.07;46.75;98319.25;4487426;32;20135;-79
2022/08/26 04:40:44;;;;;;;13.50;4.30;;;;;;;26.97;46.05;98321.50;4473337;32;20143;-79
2022/08/26 04:43:10;;;;;;;18.42;4.70;;;;;;;27.07;46.38;98323.84;4473410;32;20139;-79
2022/08/26 04:45:36;;;;;;;16.00;4.28;;;;;;;27.19;46.28;98321.38;4487681;32;20136;-79
2022/08/26 04:48:02;;;;;;;13.25;4.03;;;;;;;27.28;45.90;98319.38;4460423;32;20164;-79
2022/08/26 04:50:28;;;;;;;14.15;4.50;;;;;;;27.39;45.59;98313.34;4487552;32;20080;-79
2022/08/26 04:52:54;;;;;;;15.80;4.12;;;;;;;27.30;45.68;98315.44;4487655;32;20525;-79
2022/08/26 04:55:19;;;;;;;13.02;4.00;;;;;;;27.48;45.83;98320.25;4487672;32;20080;-79
2022/08/26 04:57:46;;;;;;;11.82;3.80;;;;;;;27.65;45.68;98318.84;4487345;32;20378;-79
2022/08/26 05:00:12;;;;;;;14.20;3.87;;;;;;;27.74;45.93;98318.63;4487731;32;20168;-79
2022/08/26 05:02:38;;;;;;;13.43;3.85;;;;;;;27.88;45.42;98319.53;4487527;32;20531;-79
2022/08/26 05:05:05;;;;;;;14.48;4.35;;;;;;;27.65;44.17;98318.03;4487672;32;20146;-79
2022/08/26 05:07:31;;;;;;;;;;;;;;;27.95;44.12;98320.38;4487686;32;20089;-79
2022/08/26 05:09:56;;;;;;;16.33;4.28;;;;;;;28.21;44.28;98317.66;4487294;32;20254;-79
2022/08/26 05:12:22;;;;;;;14.98;4.05;;;;;;;28.23;44.57;98318.28;4487279;32;20096;-79
2022/08/26 05:14:47;;;;;;;15.52;3.92;;;;;;;28.20;44.01;98312.47;4487173;32;20132;-79
2022/08/26 05:17:13;;;;;;;15.10;4.05;;;;;;;28.32;42.98;98313.50;4487284;32;20110;-79
2022/08/26 05:19:38;;;;;;;16.33;4.28;;;;;;;28.18;43.15;98319.97;4487290;32;20118;-79
2022/08/26 05:22:04;;;;;;;15.52;3.50;;;;;;;28.16;43.34;98317.50;4472915;32;20111;-78
2022/08/26 05:24:30;;;;;;;13.48;3.70;;;;;;;28.46;42.50;98319.75;4487102;32;20073;-79
2022/08/26 05:26:56;;;;;;;13.88;3.72;;;;;;;28.35;43.36;98321.22;4472866;32;20172;-78
2022/08/26 05:29:21;;;;;;;17.45;4.20;;;;;;;28.35;43.24;98323.09;4487191;32;20518;-78
2022/08/26 05:31:49;;;;;;;18.17;4.07;;;;;;;28.67;42.93;98320.59;4486980;32;20124;-79
2022/08/26 05:34:15;;;;;;;13.07;3.58;;;;;;;28.88;41.42;98323.03;4487046;32;20077;-79
2022/08/26 05:36:40;;;;;;;16.58;4.47;;;;;;;28.83;42.05;98311.97;4487140;32;20107;-78
2022/08/26 05:39:06;;;;;;;12.55;3.50;;;;;;;28.97;41.16;98321.72;4487086;32;20103;-80
2022/08/26 05:41:34;;;;;;;18.52;3.67;;;;;;;28.87;41.60;98321.34;4472896;32;20103;-81
2022/08/26 05:44:01;;;;;;;17.42;4.10;;;;;;;28.68;42.35;98325.78;4472819;32;20107;-81
2022/08/26 05:46:27;;;;;;;15.13;3.97;;;;;;;28.46;43.15;98327.88;4487359;32;20177;-80
2022/08/26 05:48:53;;;;;;;14.07;3.92;;;;;;;28.61;43.33;98328.50;4486715;31;74995;-80
2022/08/26 05:51:20;;;;;;;20.50;4.63;;;;;;;28.69;42.08;98329.34;4479541;31;20462;-79
2022/08/26 05:53:46;;;;;;;14.48;3.72;;;;;;;28.60;42.09;98324.13;4495966;31;20104;-80
2022/08/26 05:56:12;;;;;;;18.20;4.50;;;;;;;28.86;41.63;98329.69;4480334;31;20167;-80
2022/08/26 05:58:39;;;;;;;14.52;3.65;;;;;;;28.92;41.68;98329.69;4499300;31;20143;-82
2022/08/26 06:01:18;;;;;;;19.02;3.83;;;;;;;29.29;40.80;98332.72;4493917;31;20092;-84
2022/08/26 06:03:46;;;;;;;16.25;4.12;;;;;;;29.33;40.43;98333.13;4494452;31;20160;-86
2022/08/26 06:06:17;;;;;;;15.68;4.18;;;;;;;29.17;41.71;98342.59;4482304;32;20490;-77
2022/08/26 06:08:43;;;;;;;16.23;4.15;;;;;;;29.43;40.75;98332.66;4486405;31;20092;-82
2022/08/26 06:11:11;;;;;;;13.57;3.80;;;;;;;29.49;41.81;98335.31;4499007;31;20394;-82
2022/08/26 06:13:38;;;;;;;14.10;4.20;;;;;;;29.68;39.94;98336.25;4492495;31;20106;-80
2022/08/26 06:16:06;;;;;;;14.13;4.20;;;;;;;29.75;39.91;98333.56;4492689;31;20892;-80
2022/08/26 06:18:35;;;;;;;15.32;4.20;;;;;;;29.94;39.97;98337.16;4467984;32;20116;-80
2022/08/26 06:21:14;;;;;;;14.13;4.10;;;;;;;29.98;40.05;98344.66;4499337;31;20163;-93
2022/08/26 06:26:24;;;;;;;12.40;4.22;;;;;;;29.97;39.59;98345.69;4490573;31;20209;-88
2022/08/26 06:28:50;;;;;;;17.75;4.35;;;;;;;29.90;39.59;98344.94;4486037;31;20100;-89
2022/08/26 06:31:15;;;;;;;14.20;3.75;;;;;;;30.11;39.94;98343.72;4481657;31;20096;-87
2022/08/26 06:33:42;;;;;;;12.37;3.87;;;;;;;30.30;39.57;98346.50;4492438;31;20092;-83
2022/08/26 06:36:07;;;;;;;16.52;4.62;;;;;;;30.39;37.52;98347.94;4490222;31;20101;-84
2022/08/26 06:38:33;;;;;;;12.00;3.80;;;;;;;30.63;37.54;98346.22;4484805;31;20654;-81
2022/08/26 06:40:58;;;;;;;18.92;4.60;;;;;;;30.55;38.36;98343.81;4484926;31;20162;-85
2022/08/26 06:43:26;;;;;;;19.77;4.65;;;;;;;30.70;38.03;98347.00;4485252;31;20131;-84
2022/08/26 06:46:05;;;;;;;14.38;4.00;;;;;;;30.72;36.38;98344.88;4500063;31;20123;-85
2022/08/26 06:48:31;;;;;;;13.65;3.80;;;;;;;30.17;34.74;98353.72;4487123;31;20155;-85
2022/08/26 06:51:06;;;;;;;15.90;3.97;;;;;;;30.43;35.58;98346.44;4486535;32;20088;-83
2022/08/26 06:53:31;;;;;;;14.90;3.83;;;;;;;30.27;33.99;98346.94;4472195;32;20088;-85
2022/08/26 06:55:57;;;;;;;13.75;3.97;;;;;;;30.41;34.58;98348.53;4471945;32;20456;-84
2022/08/26 06:58:22;;;;;;;15.88;4.32;;;;;;;30.28;34.17;98351.34;4485721;31;20317;-87
2022/08/26 07:00:47;;;;;;;18.12;3.78;;;;;;;30.17;33.86;98340.13;4485283;32;20092;-87
2022/08/26 07:03:13;;;;;;;13.95;3.58;;;;;;;30.44;33.88;98345.34;4484702;32;20099;-86
2022/08/26 07:05:38;;;;;;;12.35;3.67;;;;;;;30.58;33.56;98351.53;4485009;32;20088;-86
2022/08/26 07:08:04;;;;;;;12.32;3.70;;;;;;;30.80;33.70;98341.03;4485893;32;20085;-86
2022/08/26 07:10:30;;;;;;;16.90;4.15;;;;;;;30.86;33.81;98348.28;4486076;32;20068;-86
2022/08/26 07:12:55;;;;;;;14.38;4.40;;;;;;;30.78;32.96;98346.69;4472040;32;20092;-86
2022/08/26 07:15:21;;;;;;;12.98;4.07;;;;;;;30.65;32.94;98355.00;4486107;32;20092;-86
2022/08/26 07:17:46;;;;;;;12.45;4.05;;;;;;;29.72;34.59;98342.09;4471743;32;20115;-86
2022/08/26 07:20:12;;;;;;;14.90;4.40;;;;;;;30.06;34.25;98356.31;4486037;32;20420;-86
2022/08/26 07:22:38;;;;;;;16.17;4.68;;;;;;;30.11;34.72;98349.16;4488207;32;20080;-86
2022/08/26 07:25:06;;;;;;;17.70;4.47;;;;;;;29.56;34.95;98359.72;4488471;32;20093;-86
2022/08/26 07:27:32;;;;;;;15.93;3.80;;;;;;;30.24;34.60;98355.56;4488376;32;20097;-86
2022/08/26 07:29:57;;;;;;;14.48;4.03;;;;;;;30.51;33.86;98351.56;4473738;32;20107;-86
2022/08/26 07:32:23;;;;;;;15.15;4.18;;;;;;;30.55;33.59;98347.34;4487999;32;20099;-86
2022/08/26 07:34:48;;;;;;;14.18;4.18;;;;;;;30.52;34.37;98341.53;4488142;32;20115;-86
2022/08/26 07:37:14;;;;;;;15.50;4.20;;;;;;;30.52;34.26;98342.38;4488077;32;20363;-86
2022/08/26 07:39:40;;;;;;;16.85;4.45;;;;;;;30.64;34.47;98337.03;4487971;32;20092;-86
2022/08/26 07:42:07;;;;;;;14.97;4.03;;;;;;;30.32;34.13;98339.81;4488077;32;20080;-86
2022/08/26 07:44:32;;;;;;;12.88;3.83;;;;;;;29.96;34.24;98345.91;4487941;32;20183;-86
2022/08/26 07:46:58;;;;;;;15.55;4.05;;;;;;;29.96;35.90;98348.63;4487993;32;20084;-87
2022/08/26 07:49:25;;;;;;;11.85;4.05;;;;;;;30.46;35.46;98337.84;4488112;32;20565;-86
2022/08/26 07:51:51;;;;;;;;;;;;;;;30.75;35.26;98338.16;4488105;32;20077;-86
2022/08/26 07:54:17;;;;;;;15.85;4.85;;;;;;;31.08;34.99;98339.72;4473634;32;19983;-86
2022/08/26 07:56:43;;;;;;;11.57;3.87;;;;;;;30.95;35.58;98346.97;4473926;32;20131;-86
2022/08/26 07:59:09;;;;;;;11.73;4.03;;;;;;;30.86;34.80;98337.41;4473637;32;20111;-86
2022/08/26 08:01:35;;;;;;;12.37;3.73;;;;;;;30.73;35.69;98343.84;4473665;32;20147;-86
2022/08/26 08:04:00;;;;;;;17.15;4.43;;;;;;;30.81;35.66;98344.59;4487868;32;20115;-86
2022/08/26 08:06:26;;;;;;;13.45;4.53;;;;;;;30.85;35.13;98340.34;4487850;32;20496;-86
2022/08/26 08:08:52;;;;;;;15.57;4.82;;;;;;;30.93;35.20;98345.56;4473491;32;20080;-86
2022/08/26 08:11:21;;;;;;;13.02;4.20;;;;;;;31.03;35.51;98334.13;4487726;32;20100;-86
2022/08/26 08:13:47;;;;;;;16.48;4.47;;;;;;;31.06;35.44;98337.25;4473984;32;20758;-86
2022/08/26 08:16:13;;;;;;;12.90;4.47;;;;;;;30.78;36.17;98338.53;4488022;32;20170;-87
2022/08/26 08:18:39;;;;;;;13.65;4.78;;;;;;;30.84;35.63;98328.66;4473701;32;20363;-87
2022/08/26 08:21:04;;;;;;;14.48;4.62;;;;;;;30.55;36.54;98336.47;4487949;32;20084;-86
2022/08/26 08:23:31;;;;;;;16.10;4.47;;;;;;;30.94;36.23;98328.16;4487867;32;20088;-86
2022/08/26 08:26:04;;;;;;;15.37;4.23;;;;;;;31.04;36.85;98325.75;4488070;32;20108;-86
2022/08/26 08:28:29;;;;;;;15.00;4.28;;;;;;;31.20;35.81;98328.91;4487931;32;20182;-86
2022/08/26 08:30:55;;;;;;;15.07;4.22;;;;;;;31.19;36.26;98327.25;4487998;32;20076;-87
2022/08/26 08:33:21;;;;;;;13.35;3.97;;;;;;;31.35;36.03;98326.59;4487590;32;20096;-87
2022/08/26 08:35:47;;;;;;;13.10;4.03;;;;;;;31.51;35.51;98315.13;4487918;32;20103;-87
2022/08/26 08:38:12;;;;;;;13.07;4.50;;;;;;;31.13;36.09;98332.53;4487825;32;20382;-87
2022/08/26 08:40:40;;;;;;;17.10;4.22;;;;;;;30.84;36.16;98327.81;4487803;32;20447;-86
2022/08/26 08:43:12;;;;;;;15.20;4.72;;;;;;;30.93;35.19;98331.94;4487948;32;20451;-86
2022/08/26 08:45:53;;;;;;;15.60;4.22;;;;;;;30.75;36.00;98325.41;4487900;32;20123;-87
2022/08/26 08:48:22;;;;;;;15.07;3.85;;;;;;;30.73;35.59;98330.25;4473315;32;20100;-87
2022/08/26 08:51:33;;;;;;;16.95;4.28;;;;;;;30.83;36.44;98329.72;4487416;32;20101;-87
2022/08/26 08:54:00;;;;;;;14.35;4.50;;;;;;;31.13;34.53;98323.53;4395214;32;20161;-86
2022/08/26 08:56:36;;;;;;;16.98;4.60;;;;;;;30.93;35.17;98323.78;4395380;32;20517;-87
2022/08/26 08:59:22;;;;;;;16.17;4.40;;;;;;;31.19;35.07;98322.63;4407636;32;20414;-87
2022/08/26 09:01:51;;;;;;;17.27;4.60;;;;;;;31.44;34.73;98321.69;4395337;32;20082;-87
2022/08/26 09:04:34;;;;;;;13.45;4.25;;;;;;;31.43;34.89;98320.00;4407923;32;20218;-86
2022/08/26 09:07:01;;;;;;;10.35;4.12;;;;;;;31.55;33.75;98318.22;4407794;32;20102;-87
2022/08/26 09:09:39;;;;;;;17.23;4.05;;;;;;;31.54;33.45;98309.22;4395297;32;20128;-86
2022/08/26 09:12:10;;;;;;;19.50;4.05;;;;;;;31.64;32.86;98308.66;4395061;32;20132;-87
2022/08/26 09:14:35;;;;;;;15.57;4.00;;;;;;;31.59;33.36;98313.97;4395234;32;20170;-86
2022/08/26 09:17:23;;;;;;;14.75;3.92;;;;;;;31.33;33.73;98315.97;4407751;32;20118;-86
2022/08/26 09:19:52;;;;;;;16.20;4.47;;;;;;;31.34;33.66;98308.63;4407918;32;20302;-86
2022/08/26 09:22:28;;;;;;;15.32;4.05;;;;;;;31.20;32.78;98307.97;4395050;32;20159;-86
2022/08/26 09:24:55;;;;;;;14.30;3.90;;;;;;;31.26;32.90;98301.63;4395032;32;20117;-86
2022/08/26 09:27:50;;;;;;;17.98;4.32;;;;;;;31.11;32.18;98307.44;4407796;32;20469;-86
2022/08/26 09:30:29;;;;;;;14.75;4.40;;;;;;;31.41;31.85;98298.50;4428260;32;20114;-87
2022/08/26 09:33:04;;;;;;;16.33;4.57;;;;;;;31.50;32.21;98294.37;4487345;32;20136;-87
2022/08/26 09:35:42;;;;;;;17.60;4.37;;;;;;;31.37;32.87;98289.13;4473129;32;20128;-86
2022/08/26 09:38:24;;;;;;;14.05;4.18;;;;;;;31.35;32.62;98297.50;4487361;32;20155;-87
2022/08/26 09:41:01;;;;;;;14.10;3.85;;;;;;;31.68;31.63;98292.66;4487181;32;20155;-86
2022/08/26 09:43:28;;;;;;;15.07;3.92;;;;;;;31.70;32.11;98291.41;4486374;32;20106;-87
2022/08/26 09:46:09;;;;;;;11.38;4.03;;;;;;;31.40;32.49;98287.81;4472894;32;20496;-85
2022/08/26 09:48:38;;;;;;;14.30;3.90;;;;;;;31.35;32.29;98297.50;4473077;32;20168;-85
2022/08/26 09:51:25;;;;;;;14.93;4.40;;;;;;;31.57;32.17;98293.50;4472940;32;20080;-86
2022/08/26 09:53:56;;;;;;;20.45;4.20;;;;;;;30.93;32.55;98294.69;4487192;32;20080;-87
2022/08/26 09:56:31;;;;;;;13.15;3.80;;;;;;;31.24;32.25;98292.03;4487078;32;20115;-87
2022/08/26 09:58:58;;;;;;;15.07;4.35;;;;;;;31.47;31.71;98292.16;4459598;32;20109;-87
2022/08/26 10:01:35;;;;;;;17.95;4.32;;;;;;;31.55;31.01;98289.09;4472915;32;20160;-87
2022/08/26 10:04:09;;;;;;;13.68;3.85;;;;;;;31.75;31.49;98287.97;4472816;32;20135;-86
2022/08/26 10:07:01;;;;;;;14.25;4.05;;;;;;;31.19;31.31;98300.03;4487142;32;20503;-86
2022/08/26 10:09:28;;;;;;;13.85;3.83;;;;;;;31.54;31.57;98283.88;4486962;32;20088;-87
2022/08/26 10:12:04;;;;;;;18.43;3.80;;;;;;;31.28;32.04;98282.34;4472773;32;20076;-87
2022/08/26 10:14:33;;;;;;;15.52;3.97;;;;;;;31.40;31.57;98285.94;4472614;32;20080;-87
2022/08/26 10:17:33;;;;;;;15.50;4.20;;;;;;;31.74;30.83;98278.97;4472706;32;20100;-86
2022/08/26 10:20:05;;;;;;;12.73;4.37;;;;;;;32.02;30.30;98274.78;4468348;32;20467;-86
2022/08/26 10:22:59;;;;;;;15.63;3.92;;;;;;;32.09;29.85;98282.84;4472962;32;20084;-86
2022/08/26 10:25:53;;;;;;;16.23;4.70;;;;;;;31.59;30.26;98278.56;4486823;32;20131;-87
2022/08/26 10:28:42;;;;;;;12.23;3.78;;;;;;;31.72;30.63;98275.66;4486797;32;20116;-86
2022/08/26 10:31:15;;;;;;;15.35;3.87;;;;;;;31.52;30.95;98272.38;4472414;32;20120;-87
2022/08/26 10:33:41;;;;;;;16.58;4.28;;;;;;;31.90;30.64;98269.28;4486755;32;20089;-87
2022/08/26 10:36:47;;;;;;;17.00;4.15;;;;;;;31.50;30.61;98266.34;4486840;32;20072;-86
2022/08/26 10:38:59;;;;;;;16.00;3.55;;;;;;;31.51;31.67;98268.84;4474643;32;20451;-86
2022/08/26 10:41:25;;;;;;;14.87;3.87;;;;;;;32.06;29.82;98259.59;4472470;32;20111;-86
2022/08/26 10:44:02;;;;;;;15.05;4.53;;;;;;;31.96;30.13;98258.53;4486687;32;20145;-87
2022/08/26 10:46:53;;;;;;;13.75;3.70;;;;;;;32.27;29.21;98251.94;4486578;32;20075;-87
2022/08/26 10:49:18;;;;;;;13.40;4.10;;;;;;;32.23;29.32;98258.91;4486554;32;20092;-86
2022/08/26 10:51:49;;;;;;;15.68;4.07;;;;;;;32.33;29.10;98250.97;4486463;32;20146;-87
2022/08/26 10:54:14;;;;;;;16.20;4.05;;;;;;;32.39;29.09;98254.66;4486620;32;20114;-86
2022/08/26 10:57:05;;;;;;;15.27;4.10;;;;;;;32.48;29.36;98250.50;4491241;32;20416;-87
2022/08/26 10:59:37;;;;;;;16.80;4.10;;;;;;;32.55;29.60;98242.16;4477392;32;20180;-87
2022/08/26 11:02:15;;;;;;;13.48;4.15;;;;;;;32.38;28.99;98240.19;4491666;32;20459;-86
2022/08/26 11:04:54;;;;;;;15.70;4.07;;;;;;;32.31;28.75;98243.03;4491660;32;20155;-87
2022/08/26 11:07:39;;;;;;;14.65;4.10;;;;;;;32.40;27.36;98245.41;4477354;32;20076;-86
2022/08/26 11:10:27;;;;;;;15.57;3.75;;;;;;;32.52;28.04;98241.59;4491514;32;20096;-86
2022/08/26 11:12:59;;;;;;;;;;;;;;;32.63;27.75;98236.41;4480424;32;20392;-86
2022/08/26 11:15:26;;;;;;;13.48;4.28;;;;;;;32.70;26.99;98237.94;4491557;32;20065;-87
2022/08/26 11:17:54;;;;;;;15.52;3.50;;;;;;;32.62;26.83;98241.00;4491348;32;20227;-87
2022/08/26 11:20:22;;;;;;;;;;;;;;;32.48;26.85;98243.13;4491745;32;20100;-87
2022/08/26 11:22:51;;;;;;;16.80;3.92;;;;;;;32.12;27.31;98236.03;4491351;32;20002;-86
2022/08/26 11:25:19;;;;;;;15.23;3.72;;;;;;;32.15;28.11;98234.75;4477062;32;20103;-87
2022/08/26 11:27:48;;;;;;;17.23;3.83;;;;;;;32.32;27.50;98227.53;4491264;32;20107;-86
2022/08/26 11:30:16;;;;;;;17.10;4.40;;;;;;;32.40;27.21;98226.31;4491222;32;20077;-86
2022/08/26 11:32:42;;;;;;;16.30;4.62;;;;;;;32.12;28.11;98222.41;4491224;32;20130;-86
2022/08/26 11:35:07;;;;;;;15.23;3.62;;;;;;;32.40;28.40;98216.25;4491119;32;20089;-87
2022/08/26 11:37:39;;;;;;;15.70;3.87;;;;;;;31.85;28.92;98225.59;4491047;32;20358;-86
2022/08/26 11:40:11;;;;;;;17.10;3.95;;;;;;;32.18;28.30;98215.19;4476762;32;20193;-86